Time;durP1;ratioP1;P1;durP2;ratioP2;P2;SDS_P1;SDS_P2;PMS_P1;PMS_P2;Temp;Humidity;BMP_temperature;BMP_pressure;BME280_temperature;BME280_humidity;BME280_pressure;Samples;Min_cycle;Max_cycle;Signal;HPM_P1;HPM_P2
2023/07/22 00:00:14;;;;;;;12.55;4.07;;;14.50;99.90;;;;;;4994594;28;20151;-81
2023/07/22 00:02:39;;;;;;;8.02;3.58;;;14.40;99.90;;;;;;4994336;28;20113;-81
2023/07/22 00:05:05;;;;;;;7.72;3.38;;;14.40;99.90;;;;;;4994859;28;20621;-81
2023/07/22 00:07:30;;;;;;;8.63;4.05;;;14.30;99.90;;;;;;4994245;28;20113;-81
2023/07/22 00:09:56;;;;;;;8.27;3.72;;;14.40;99.90;;;;;;4994277;28;20137;-81
2023/07/22 00:12:25;;;;;;;5.35;3.60;;;14.30;99.90;;;;;;4995718;28;20037;-81
2023/07/22 00:14:51;;;;;;;8.43;3.83;;;14.30;99.90;;;;;;4994529;28;20488;-81
2023/07/22 00:17:16;;;;;;;6.53;3.95;;;14.30;99.90;;;;;;4995911;28;21774;-80
2023/07/22 00:19:42;;;;;;;9.48;3.88;;;14.30;99.90;;;;;;4994577;28;20042;-80
2023/07/22 00:22:08;;;;;;;12.52;4.00;;;14.30;99.90;;;;;;4995131;28;20045;-81
2023/07/22 00:24:33;;;;;;;5.88;3.90;;;14.30;99.90;;;;;;4994971;28;20122;-81
2023/07/22 00:27:00;;;;;;;7.57;4.15;;;14.20;99.90;;;;;;4995352;28;20126;-81
2023/07/22 00:29:26;;;;;;;6.60;4.03;;;14.20;99.90;;;;;;4994879;28;20094;-80
2023/07/22 00:31:51;;;;;;;8.50;4.30;;;14.20;99.90;;;;;;4995289;28;20034;-81
2023/07/22 00:34:17;;;;;;;6.03;3.92;;;14.20;99.90;;;;;;4996120;28;20034;-80
2023/07/22 00:36:44;;;;;;;22.58;5.18;;;14.20;99.90;;;;;;4995464;28;20057;-81
2023/07/22 00:39:09;;;;;;;8.15;4.10;;;14.10;99.90;;;;;;4997226;28;20026;-82
2023/07/22 00:41:34;;;;;;;8.35;4.22;;;14.10;99.90;;;;;;4995466;28;20045;-80
2023/07/22 00:44:00;;;;;;;8.85;4.22;;;14.10;99.90;;;;;;4994068;28;20029;-81
2023/07/22 00:46:25;;;;;;;10.07;3.80;;;14.10;99.90;;;;;;4993889;28;20030;-81
2023/07/22 00:48:53;;;;;;;9.90;3.72;;;14.00;99.90;;;;;;4994254;28;20034;-81
2023/07/22 00:51:22;;;;;;;7.65;4.13;;;14.00;99.90;;;;;;4993355;28;20040;-81
2023/07/22 00:53:47;;;;;;;11.63;4.65;;;14.00;99.90;;;;;;4994959;28;20481;-81
2023/07/22 00:56:13;;;;;;;6.47;4.13;;;14.00;99.90;;;;;;4993144;28;20026;-81
2023/07/22 00:58:39;;;;;;;4.90;3.97;;;13.90;99.90;;;;;;4994806;28;20031;-81
2023/07/22 01:01:04;;;;;;;7.22;4.30;;;13.90;99.90;;;;;;4992617;28;20127;-81
2023/07/22 01:03:31;;;;;;;8.55;4.70;;;13.90;99.90;;;;;;4994019;28;20022;-81
2023/07/22 01:05:58;;;;;;;10.70;5.13;;;13.90;99.90;;;;;;4993627;28;20025;-81
2023/07/22 01:08:24;;;;;;;8.10;4.70;;;13.90;99.90;;;;;;4994130;28;20312;-81
2023/07/22 01:10:49;;;;;;;8.50;5.00;;;13.90;99.90;;;;;;4992850;28;20052;-81
2023/07/22 01:13:15;;;;;;;8.95;4.53;;;13.90;99.90;;;;;;4993391;28;20026;-82
2023/07/22 01:15:41;;;;;;;6.60;4.80;;;13.80;99.90;;;;;;4992629;28;20080;-81
2023/07/22 01:18:08;;;;;;;10.60;5.47;;;13.80;99.90;;;;;;4992794;28;20018;-80
2023/07/22 01:20:34;;;;;;;8.40;5.03;;;13.80;99.90;;;;;;4992005;28;20026;-81
2023/07/22 01:23:00;;;;;;;13.27;5.07;;;13.80;99.90;;;;;;4989847;28;20034;-81
2023/07/22 01:25:26;;;;;;;8.45;4.70;;;13.80;99.90;;;;;;4992076;28;20106;-81
2023/07/22 01:27:51;;;;;;;9.32;4.60;;;13.70;99.90;;;;;;4991754;28;21388;-80
2023/07/22 01:30:19;;;;;;;10.50;5.07;;;13.80;99.90;;;;;;4992243;28;20037;-81
2023/07/22 01:32:45;;;;;;;9.02;4.65;;;13.80;99.90;;;;;;4991415;28;20121;-81
2023/07/22 01:35:10;;;;;;;9.88;4.43;;;13.70;99.90;;;;;;4993169;28;20125;-81
2023/07/22 01:37:36;;;;;;;8.85;4.43;;;13.70;99.90;;;;;;4992222;28;20035;-81
2023/07/22 01:40:12;;;;;;;6.63;4.72;;;13.70;99.90;;;;;;4994171;28;20053;-80
2023/07/22 01:42:41;;;;;;;10.70;4.90;;;13.70;99.90;;;;;;4993023;28;20156;-81
2023/07/22 01:45:07;;;;;;;7.60;4.28;;;13.60;99.90;;;;;;4991645;28;20026;-81
2023/07/22 01:47:35;;;;;;;7.63;4.75;;;13.60;99.90;;;;;;4992140;28;20037;-81
2023/07/22 01:50:01;;;;;;;8.10;5.25;;;13.60;99.90;;;;;;4991815;28;20420;-81
2023/07/22 01:52:27;;;;;;;8.73;5.50;;;13.50;99.90;;;;;;4992324;28;20038;-81
2023/07/22 01:54:52;;;;;;;6.57;5.10;;;13.50;99.90;;;;;;4991417;28;20501;-81
2023/07/22 01:57:18;;;;;;;9.45;5.25;;;13.50;99.90;;;;;;4991702;28;20097;-81
2023/07/22 01:59:43;;;;;;;7.78;4.90;;;13.60;99.90;;;;;;4991429;28;20496;-81
2023/07/22 02:02:09;;;;;;;7.97;5.38;;;13.60;99.90;;;;;;4990136;28;20048;-81
2023/07/22 02:04:34;;;;;;;7.63;5.28;;;13.50;99.90;;;;;;4992187;28;20038;-82
2023/07/22 02:07:00;;;;;;;14.27;5.20;;;13.50;99.90;;;;;;4992427;28;20023;-81
2023/07/22 02:09:25;;;;;;;15.30;5.68;;;13.60;99.90;;;;;;4992612;28;20054;-80
2023/07/22 02:11:51;;;;;;;22.55;5.90;;;13.60;99.90;;;;;;4993212;28;20078;-81
2023/07/22 02:14:16;;;;;;;12.52;4.95;;;13.50;99.90;;;;;;4993474;28;20030;-81
2023/07/22 02:16:42;;;;;;;13.10;6.20;;;13.50;99.90;;;;;;4992438;28;20094;-81
2023/07/22 02:19:07;;;;;;;17.15;6.50;;;13.50;99.90;;;;;;4991315;28;20038;-81
2023/07/22 02:21:33;;;;;;;10.27;5.05;;;13.60;99.90;;;;;;4991054;28;20113;-81
2023/07/22 02:23:58;;;;;;;10.57;5.57;;;13.50;99.90;;;;;;4992018;28;20037;-81
2023/07/22 02:26:24;;;;;;;13.57;5.63;;;13.60;99.90;;;;;;4992260;28;20027;-81
2023/07/22 02:28:49;;;;;;;11.15;4.85;;;13.60;99.90;;;;;;4992005;28;20034;-81
2023/07/22 02:31:15;;;;;;;8.90;5.28;;;13.60;99.90;;;;;;4992997;28;20420;-81
2023/07/22 02:33:40;;;;;;;9.30;5.85;;;13.60;99.90;;;;;;4993647;28;20344;-81
2023/07/22 02:36:06;;;;;;;8.63;5.40;;;13.60;99.90;;;;;;4993336;28;20030;-81
2023/07/22 02:38:31;;;;;;;8.73;4.88;;;13.70;99.90;;;;;;4995671;28;20042;-81
2023/07/22 02:41:07;;;;;;;8.38;5.47;;;13.70;99.90;;;;;;4998327;28;20098;-81
2023/07/22 02:43:33;;;;;;;12.85;5.30;;;13.70;99.90;;;;;;4997491;28;20025;-81
2023/07/22 02:46:05;;;;;;;11.95;5.20;;;13.70;99.90;;;;;;4996882;28;20026;-81
2023/07/22 02:48:33;;;;;;;12.25;4.70;;;13.70;99.90;;;;;;4996131;28;20026;-81
2023/07/22 02:51:06;;;;;;;14.55;5.03;;;13.70;99.90;;;;;;4995890;28;20097;-81
2023/07/22 02:53:33;;;;;;;12.88;4.35;;;13.70;99.90;;;;;;4996542;28;20071;-81
2023/07/22 02:55:59;;;;;;;7.40;4.85;;;13.70;99.90;;;;;;4996864;28;20053;-81
2023/07/22 02:58:25;;;;;;;12.18;5.15;;;13.60;99.90;;;;;;4996306;28;20496;-80
2023/07/22 03:00:50;;;;;;;9.80;4.85;;;13.60;99.90;;;;;;4995631;28;20057;-81
2023/07/22 03:03:16;;;;;;;9.40;4.95;;;13.60;99.90;;;;;;4995526;28;20022;-81
2023/07/22 03:05:42;;;;;;;8.20;5.55;;;13.60;99.90;;;;;;4995706;28;20032;-81
2023/07/22 03:08:07;;;;;;;8.18;4.60;;;13.60;99.90;;;;;;4995471;28;20044;-81
2023/07/22 03:10:33;;;;;;;9.75;5.32;;;13.60;99.90;;;;;;4995240;28;20029;-81
2023/07/22 03:12:59;;;;;;;9.25;5.00;;;13.60;99.90;;;;;;4995489;28;20026;-81
2023/07/22 03:15:26;;;;;;;10.48;5.35;;;13.60;99.90;;;;;;4996833;28;20026;-80
2023/07/22 03:17:51;;;;;;;6.85;4.97;;;13.60;99.90;;;;;;4993925;28;20162;-81
2023/07/22 03:20:19;;;;;;;9.38;5.13;;;13.60;99.90;;;;;;4995266;28;20510;-81
2023/07/22 03:22:44;;;;;;;12.88;5.40;;;13.50;99.90;;;;;;4994713;28;20088;-82
2023/07/22 03:25:11;;;;;;;10.98;5.18;;;13.50;99.90;;;;;;4994558;28;20050;-80
2023/07/22 03:27:38;;;;;;;18.27;5.68;;;13.50;99.90;;;;;;4993243;28;20131;-81
2023/07/22 03:30:07;;;;;;;7.97;4.93;;;13.50;99.90;;;;;;4993494;28;20052;-81
2023/07/22 03:32:34;;;;;;;12.82;4.80;;;13.50;99.90;;;;;;5007048;28;20080;-81
2023/07/22 03:35:01;;;;;;;6.63;4.75;;;13.50;99.90;;;;;;4993919;28;20034;-81
2023/07/22 03:37:27;;;;;;;7.20;4.75;;;13.50;99.90;;;;;;4988909;28;20113;-81
2023/07/22 03:39:53;;;;;;;9.40;4.75;;;13.50;99.90;;;;;;4990655;28;20087;-82
2023/07/22 03:42:18;;;;;;;9.13;5.47;;;13.50;99.90;;;;;;4990066;28;20116;-82
2023/07/22 03:44:44;;;;;;;7.22;4.25;;;13.40;99.90;;;;;;4991243;28;20045;-82
2023/07/22 03:47:09;;;;;;;12.02;5.20;;;13.40;99.90;;;;;;4990037;28;20034;-81
2023/07/22 03:49:35;;;;;;;16.25;5.32;;;13.30;99.90;;;;;;4993420;28;20088;-82
2023/07/22 03:52:00;;;;;;;7.35;4.60;;;13.30;99.90;;;;;;4995039;28;20447;-82
2023/07/22 03:54:26;;;;;;;8.50;5.00;;;13.30;99.90;;;;;;4995189;28;20027;-82
2023/07/22 03:56:51;;;;;;;7.60;4.75;;;13.30;99.90;;;;;;4994069;28;20034;-82
2023/07/22 03:59:17;;;;;;;10.38;5.40;;;13.30;99.90;;;;;;4994722;28;20065;-81
2023/07/22 04:01:43;;;;;;;12.68;5.68;;;13.30;99.90;;;;;;4994044;28;20116;-82
2023/07/22 04:04:10;;;;;;;12.35;5.95;;;13.30;99.90;;;;;;4993372;28;20156;-82
2023/07/22 04:06:36;;;;;;;9.70;5.57;;;13.30;99.90;;;;;;4992199;28;21525;-82
2023/07/22 04:09:01;;;;;;;9.68;6.13;;;13.40;99.90;;;;;;4994287;28;20108;-82
2023/07/22 04:11:27;;;;;;;9.38;5.22;;;13.40;99.90;;;;;;4992593;28;20038;-82
2023/07/22 04:13:53;;;;;;;10.32;5.78;;;13.50;99.90;;;;;;4992883;28;20080;-82
2023/07/22 04:16:18;;;;;;;10.55;6.10;;;13.50;99.90;;;;;;4991581;28;20048;-82
2023/07/22 04:18:44;;;;;;;7.78;5.55;;;13.50;99.90;;;;;;4994660;28;20049;-81
2023/07/22 04:21:09;;;;;;;9.18;5.68;;;13.50;99.90;;;;;;4994601;28;20053;-81
2023/07/22 04:23:35;;;;;;;9.52;5.53;;;13.60;99.90;;;;;;4994813;28;20575;-82
2023/07/22 04:26:04;;;;;;;11.52;5.47;;;13.60;99.90;;;;;;4993772;28;20034;-82
2023/07/22 04:28:30;;;;;;;9.38;6.00;;;13.70;99.90;;;;;;4993360;28;20034;-82
2023/07/22 04:30:58;;;;;;;9.90;5.78;;;13.70;99.90;;;;;;4994085;28;20084;-81
2023/07/22 04:33:24;;;;;;;6.82;5.53;;;13.80;99.90;;;;;;4994114;28;20034;-82
2023/07/22 04:35:52;;;;;;;10.27;6.00;;;13.80;99.90;;;;;;4989866;28;20030;-82
2023/07/22 04:38:18;;;;;;;10.02;5.75;;;13.90;99.90;;;;;;4993534;28;20030;-82
2023/07/22 04:40:44;;;;;;;9.13;5.30;;;14.00;99.90;;;;;;4993643;28;20072;-82
2023/07/22 04:43:09;;;;;;;9.30;5.40;;;14.00;99.90;;;;;;4992279;28;20153;-81
2023/07/22 04:45:35;;;;;;;7.57;5.18;;;14.10;99.90;;;;;;4993611;28;20029;-81
2023/07/22 04:48:02;;;;;;;11.38;5.10;;;14.20;99.90;;;;;;4994848;28;20441;-81
2023/07/22 04:50:27;;;;;;;9.73;4.68;;;14.30;99.90;;;;;;4994530;28;20038;-81
2023/07/22 04:52:54;;;;;;;8.52;4.38;;;14.50;99.90;;;;;;4991487;28;20389;-81
2023/07/22 04:55:20;;;;;;;9.23;4.55;;;14.50;99.90;;;;;;4992026;28;20034;-81
2023/07/22 04:57:46;;;;;;;7.07;4.80;;;14.60;99.90;;;;;;4992090;28;20077;-81
2023/07/22 05:00:14;;;;;;;8.50;4.40;;;14.70;99.90;;;;;;4990052;28;20037;-81
2023/07/22 05:02:39;;;;;;;7.55;4.18;;;14.70;99.90;;;;;;4992374;28;20022;-81
2023/07/22 05:05:05;;;;;;;8.00;4.50;;;14.80;99.90;;;;;;4990464;28;20603;-81
2023/07/22 05:07:30;;;;;;;6.25;4.32;;;14.80;99.90;;;;;;4991103;28;20030;-81
2023/07/22 05:09:56;;;;;;;8.25;4.30;;;14.90;99.90;;;;;;4991653;28;20019;-81
2023/07/22 05:12:22;;;;;;;7.97;5.03;;;14.90;99.90;;;;;;4993788;28;20064;-80
2023/07/22 05:14:48;;;;;;;8.55;4.22;;;15.00;99.90;;;;;;4991852;28;20030;-81
2023/07/22 05:17:14;;;;;;;8.68;4.05;;;15.10;99.90;;;;;;4991669;28;20121;-81
2023/07/22 05:19:40;;;;;;;9.07;4.32;;;15.10;99.90;;;;;;4990331;28;20855;-81
2023/07/22 05:22:05;;;;;;;5.60;4.07;;;15.20;99.90;;;;;;4988947;28;20105;-81
2023/07/22 05:24:31;;;;;;;6.50;3.83;;;15.30;99.90;;;;;;4993180;28;20352;-82
2023/07/22 05:26:56;;;;;;;7.15;3.80;;;15.30;99.90;;;;;;4991286;28;20065;-81
2023/07/22 05:29:22;;;;;;;7.75;3.50;;;15.30;99.90;;;;;;4993349;28;20042;-82
2023/07/22 05:31:47;;;;;;;8.32;4.07;;;15.40;99.90;;;;;;4992715;28;20130;-82
2023/07/22 05:34:13;;;;;;;6.32;3.60;;;15.40;99.90;;;;;;4992772;28;20027;-79
2023/07/22 05:36:39;;;;;;;10.95;4.30;;;15.50;99.90;;;;;;4984547;28;20034;-74
2023/07/22 05:39:04;;;;;;;5.47;3.80;;;15.50;99.90;;;;;;4982876;28;20094;-73
2023/07/22 05:41:32;;;;;;;8.93;3.83;;;15.60;99.90;;;;;;4984571;28;20404;-75
2023/07/22 05:43:57;;;;;;;4.82;3.35;;;15.60;99.90;;;;;;4985472;28;20998;-75
2023/07/22 05:46:23;;;;;;;9.15;3.90;;;15.60;99.90;;;;;;4984603;28;20026;-75
2023/07/22 05:48:48;;;;;;;7.20;3.53;;;15.70;99.90;;;;;;4985184;28;20037;-75
2023/07/22 05:51:15;;;;;;;7.18;3.50;;;15.70;99.90;;;;;;4985696;28;20042;-75
2023/07/22 05:53:40;;;;;;;8.43;3.83;;;15.70;99.90;;;;;;4985516;28;20102;-75
2023/07/22 05:56:06;;;;;;;7.32;4.03;;;15.80;99.90;;;;;;4985021;28;20033;-76
2023/07/22 05:58:31;;;;;;;7.90;4.03;;;15.80;99.90;;;;;;4985610;28;20064;-74
2023/07/22 06:00:57;;;;;;;7.80;3.92;;;15.90;99.90;;;;;;4984007;28;20137;-75
2023/07/22 06:03:22;;;;;;;7.60;3.97;;;16.00;99.90;;;;;;4983623;28;20034;-75
2023/07/22 06:05:48;;;;;;;8.32;3.65;;;15.90;99.90;;;;;;4984915;28;20141;-74
2023/07/22 06:08:14;;;;;;;6.78;3.88;;;16.00;99.90;;;;;;4986230;28;20117;-77
2023/07/22 06:10:42;;;;;;;5.45;3.88;;;16.00;99.90;;;;;;4986458;28;20030;-79
2023/07/22 06:13:08;;;;;;;7.18;3.97;;;16.10;99.90;;;;;;4990389;28;20035;-78
2023/07/22 06:15:33;;;;;;;5.13;3.63;;;16.20;99.90;;;;;;4990671;28;20018;-77
2023/07/22 06:18:00;;;;;;;7.18;3.58;;;16.30;99.90;;;;;;4992159;28;20397;-77
2023/07/22 06:20:26;;;;;;;6.65;3.40;;;16.40;99.90;;;;;;4989494;28;20396;-78
2023/07/22 06:22:51;;;;;;;8.63;3.70;;;16.50;99.90;;;;;;4988849;28;20035;-78
2023/07/22 06:25:17;;;;;;;6.35;3.83;;;16.50;99.90;;;;;;4990765;28;20062;-76
2023/07/22 06:27:43;;;;;;;7.88;3.50;;;16.70;99.90;;;;;;4987686;28;20490;-74
2023/07/22 06:30:09;;;;;;;9.85;3.40;;;16.80;99.90;;;;;;4989942;28;20113;-75
2023/07/22 06:32:37;;;;;;;5.15;2.90;;;17.00;99.90;;;;;;4986640;28;20039;-82
2023/07/22 06:35:03;;;;;;;7.45;3.33;;;17.10;99.90;;;;;;4987526;28;20025;-84
2023/07/22 06:37:29;;;;;;;5.97;3.38;;;17.20;99.90;;;;;;4987056;28;20038;-84
2023/07/22 06:39:54;;;;;;;7.35;3.50;;;17.30;99.90;;;;;;4986920;28;20114;-83
2023/07/22 06:42:20;;;;;;;6.13;3.42;;;17.30;99.90;;;;;;4987850;28;20954;-84
2023/07/22 06:44:45;;;;;;;7.47;3.58;;;17.40;99.90;;;;;;4988415;28;20042;-84
2023/07/22 06:47:11;;;;;;;7.68;3.33;;;17.40;99.90;;;;;;4986856;28;20090;-83
2023/07/22 06:49:37;;;;;;;6.60;3.15;;;17.50;99.90;;;;;;4988626;28;20164;-84
2023/07/22 06:52:03;;;;;;;6.30;3.05;;;17.60;99.90;;;;;;4987393;28;20159;-84
2023/07/22 06:54:28;;;;;;;5.65;2.95;;;17.70;99.90;;;;;;4986593;28;20033;-84
2023/07/22 06:56:54;;;;;;;4.43;2.75;;;17.80;99.90;;;;;;4988636;28;20018;-83
2023/07/22 06:59:19;;;;;;;4.82;3.15;;;17.80;99.90;;;;;;4987928;28;20030;-84
2023/07/22 07:01:45;;;;;;;4.18;2.60;;;17.80;99.90;;;;;;4988680;28;20050;-84
2023/07/22 07:04:10;;;;;;;4.40;2.58;;;17.80;99.90;;;;;;4988385;28;20027;-84
2023/07/22 07:06:38;;;;;;;4.30;2.70;;;17.80;99.90;;;;;;4988411;28;20029;-84
2023/07/22 07:09:03;;;;;;;3.63;2.78;;;17.80;99.90;;;;;;4987983;28;20102;-84
2023/07/22 07:11:29;;;;;;;4.00;2.50;;;18.00;99.90;;;;;;4988909;28;20477;-85
2023/07/22 07:13:55;;;;;;;5.28;2.78;;;18.10;99.90;;;;;;4986889;28;20077;-83
2023/07/22 07:16:23;;;;;;;4.15;2.30;;;18.10;99.90;;;;;;4986246;28;20113;-83
2023/07/22 07:18:49;;;;;;;5.65;2.33;;;18.30;99.90;;;;;;4988300;28;20552;-84
2023/07/22 07:21:14;;;;;;;5.30;2.42;;;18.40;99.90;;;;;;4987960;28;20038;-84
2023/07/22 07:23:40;;;;;;;3.60;2.20;;;18.50;99.90;;;;;;4988846;28;20531;-84
2023/07/22 07:26:05;;;;;;;6.65;2.28;;;18.50;99.90;;;;;;4984920;28;20116;-76
2023/07/22 07:28:31;;;;;;;4.53;2.60;;;18.50;99.90;;;;;;4986441;28;20045;-77
2023/07/22 07:30:56;;;;;;;5.15;2.60;;;18.50;99.90;;;;;;4988658;28;20030;-78
2023/07/22 07:33:22;;;;;;;4.18;2.50;;;18.50;99.90;;;;;;4987563;28;20559;-78
2023/07/22 07:35:47;;;;;;;7.15;2.58;;;18.50;99.90;;;;;;4988408;28;20026;-76
2023/07/22 07:38:13;;;;;;;4.47;2.33;;;18.60;99.90;;;;;;4985805;28;20026;-79
2023/07/22 07:40:39;;;;;;;4.45;2.50;;;18.70;99.90;;;;;;4987826;28;20714;-77
2023/07/22 07:43:04;;;;;;;3.17;2.53;;;18.80;99.90;;;;;;4986451;28;20030;-77
2023/07/22 07:45:30;;;;;;;4.88;2.40;;;18.90;99.90;;;;;;4984849;28;20110;-76
2023/07/22 07:47:55;;;;;;;5.88;2.20;;;18.90;99.90;;;;;;4987532;28;20033;-76
2023/07/22 07:50:21;;;;;;;5.97;2.08;;;18.90;99.90;;;;;;4989926;28;20044;-77
2023/07/22 07:52:46;;;;;;;3.63;1.83;;;18.90;99.90;;;;;;4989973;28;20125;-78
2023/07/22 07:55:12;;;;;;;6.18;1.83;;;18.90;99.90;;;;;;4987557;28;20023;-76
2023/07/22 07:57:38;;;;;;;2.65;1.70;;;19.00;99.90;;;;;;4982356;28;20062;-77
2023/07/22 08:00:04;;;;;;;3.40;1.92;;;19.00;99.90;;;;;;4986354;28;20169;-78
2023/07/22 08:02:29;;;;;;;3.63;2.17;;;19.00;99.90;;;;;;4985707;28;20401;-76
2023/07/22 08:04:55;;;;;;;4.57;2.58;;;19.10;99.90;;;;;;4984898;28;20033;-77
2023/07/22 08:07:21;;;;;;;6.30;2.10;;;19.10;99.90;;;;;;4985835;28;20477;-77
2023/07/22 08:09:49;;;;;;;3.75;2.67;;;19.10;99.90;;;;;;4985042;28;20595;-77
2023/07/22 08:12:14;;;;;;;5.75;2.20;;;19.20;99.90;;;;;;4984068;28;20027;-76
2023/07/22 08:14:40;;;;;;;6.50;2.00;;;19.20;99.90;;;;;;4980998;28;20587;-77
2023/07/22 08:17:06;;;;;;;5.00;2.10;;;19.40;99.90;;;;;;4975465;28;20026;-76
2023/07/22 08:19:31;;;;;;;4.38;1.80;;;19.50;99.90;;;;;;4973992;28;20485;-77
2023/07/22 08:21:57;;;;;;;2.90;1.77;;;19.50;99.90;;;;;;4973376;28;20133;-77
2023/07/22 08:24:22;;;;;;;4.18;2.13;;;19.40;99.90;;;;;;4976372;28;20117;-76
2023/07/22 08:26:48;;;;;;;3.78;2.00;;;19.50;99.90;;;;;;4978780;28;20045;-76
2023/07/22 08:29:14;;;;;;;6.43;1.88;;;19.60;99.90;;;;;;4976876;28;20022;-77
2023/07/22 08:31:40;;;;;;;3.38;2.03;;;19.70;99.90;;;;;;4977750;28;20066;-79
2023/07/22 08:34:05;;;;;;;6.05;1.98;;;19.70;99.90;;;;;;4979910;28;20099;-78
2023/07/22 08:36:31;;;;;;;3.33;1.80;;;19.80;99.90;;;;;;4981107;28;20148;-77
2023/07/22 08:38:56;;;;;;;4.75;1.75;;;19.90;99.90;;;;;;4974804;28;20034;-76
2023/07/22 08:41:25;;;;;;;4.60;1.90;;;19.90;99.90;;;;;;4975992;28;20026;-77
2023/07/22 08:43:51;;;;;;;3.88;1.67;;;20.00;99.90;;;;;;4974871;28;20100;-77
2023/07/22 08:46:22;;;;;;;2.80;1.70;;;20.10;99.90;;;;;;4968738;28;20030;-76
2023/07/22 08:48:52;;;;;;;4.20;1.80;;;20.20;99.90;;;;;;4979530;28;20057;-77
2023/07/22 08:51:18;;;;;;;5.05;1.80;;;20.20;99.90;;;;;;4980596;28;20745;-73
2023/07/22 08:53:45;;;;;;;4.53;2.00;;;20.30;99.90;;;;;;4981327;28;20064;-75
2023/07/22 08:56:11;;;;;;;3.03;1.80;;;20.50;99.90;;;;;;4979933;28;21375;-74
2023/07/22 08:58:38;;;;;;;3.42;2.00;;;20.50;99.90;;;;;;4980938;28;20026;-74
2023/07/22 09:01:05;;;;;;;4.15;1.80;;;20.50;99.90;;;;;;4981997;28;20795;-74
2023/07/22 09:03:32;;;;;;;2.50;1.60;;;20.60;99.90;;;;;;4979629;28;20459;-74
2023/07/22 09:05:58;;;;;;;3.10;1.85;;;20.50;99.90;;;;;;4980406;28;20045;-74
2023/07/22 09:08:24;;;;;;;3.42;1.92;;;20.60;99.90;;;;;;4982238;28;20804;-74
2023/07/22 09:10:49;;;;;;;4.95;1.70;;;20.60;99.90;;;;;;4980679;28;20034;-73
2023/07/22 09:13:15;;;;;;;4.53;1.75;;;20.60;99.90;;;;;;4981189;28;20026;-73
2023/07/22 09:15:42;;;;;;;5.60;2.00;;;20.80;99.90;;;;;;4980716;28;20037;-74
2023/07/22 09:18:07;;;;;;;5.05;1.60;;;20.80;99.90;;;;;;4982302;28;20042;-75
2023/07/22 09:20:34;;;;;;;7.00;1.67;;;21.00;99.90;;;;;;4982476;28;20026;-74
2023/07/22 09:23:00;;;;;;;3.72;1.70;;;21.10;99.90;;;;;;4983621;28;20045;-74
2023/07/22 09:25:27;;;;;;;3.05;1.80;;;21.10;99.90;;;;;;4982280;28;20080;-75
2023/07/22 09:27:54;;;;;;;5.13;1.70;;;21.30;99.90;;;;;;4981129;28;20036;-74
2023/07/22 09:30:29;;;;;;;2.72;1.70;;;21.30;99.90;;;;;;4982141;28;20038;-74
2023/07/22 09:32:57;;;;;;;4.28;1.60;;;21.50;99.90;;;;;;4983353;28;20820;-75
2023/07/22 09:35:28;;;;;;;3.60;1.40;;;21.70;99.90;;;;;;4981359;28;20026;-75
2023/07/22 09:37:55;;;;;;;3.13;1.70;;;21.80;99.90;;;;;;4982185;28;20077;-75
2023/07/22 09:40:25;;;;;;;2.85;1.45;;;22.00;99.90;;;;;;4982851;28;20419;-75
2023/07/22 09:42:55;;;;;;;5.22;1.70;;;22.20;99.90;;;;;;4979393;28;20073;-75
2023/07/22 09:45:25;;;;;;;2.72;1.67;;;22.40;99.90;;;;;;4982949;28;20038;-75
2023/07/22 09:47:54;;;;;;;3.72;1.70;;;22.60;99.90;;;;;;4986312;28;20045;-75
2023/07/22 09:50:23;;;;;;;3.97;1.70;;;22.80;99.90;;;;;;4985529;28;20038;-75
2023/07/22 09:52:51;;;;;;;2.83;1.88;;;23.00;99.90;;;;;;4987111;28;20181;-74
2023/07/22 09:55:22;;;;;;;4.38;1.70;;;23.10;99.90;;;;;;4986882;28;20030;-75
2023/07/22 09:57:52;;;;;;;3.85;1.80;;;23.30;99.90;;;;;;4983661;28;20113;-74
2023/07/22 10:00:19;;;;;;;4.88;1.52;;;23.50;99.90;;;;;;4984931;28;20031;-74
2023/07/22 10:02:46;;;;;;;2.88;1.73;;;23.70;99.90;;;;;;4986437;28;20025;-74
2023/07/22 10:05:16;;;;;;;2.88;1.40;;;23.90;99.90;;;;;;4985998;28;20405;-74
2023/07/22 10:07:47;;;;;;;2.70;1.55;;;24.10;99.90;;;;;;4985742;28;20034;-75
2023/07/22 10:10:17;;;;;;;2.53;1.90;;;24.30;99.90;;;;;;4986022;28;20113;-73
2023/07/22 10:12:43;;;;;;;3.83;1.52;;;24.60;99.90;;;;;;4986263;28;20050;-74
2023/07/22 10:15:10;;;;;;;2.30;1.75;;;24.70;99.90;;;;;;4986251;28;20488;-74
2023/07/22 10:17:36;;;;;;;2.53;1.50;;;24.70;99.90;;;;;;4987624;28;20030;-74
2023/07/22 10:20:07;;;;;;;2.25;1.70;;;25.00;99.90;;;;;;4986408;28;20026;-74
2023/07/22 10:22:37;;;;;;;3.22;1.75;;;25.00;99.90;;;;;;4987212;28;20030;-73
2023/07/22 10:25:07;;;;;;;1.88;1.45;;;24.70;99.90;;;;;;4985164;28;21265;-74
2023/07/22 10:27:34;;;;;;;10.20;1.90;;;24.60;99.90;;;;;;4987128;28;20053;-74
2023/07/22 10:30:00;;;;;;;4.65;2.10;;;24.50;99.90;;;;;;4985635;28;20019;-73
2023/07/22 10:32:36;;;;;;;7.70;2.05;;;24.30;99.90;;;;;;4985412;28;20077;-74
2023/07/22 10:35:02;;;;;;;4.15;2.10;;;24.00;99.90;;;;;;4984019;28;20117;-75
2023/07/22 10:37:32;;;;;;;4.30;1.63;;;23.70;99.90;;;;;;4983724;28;21442;-74
2023/07/22 10:40:18;;;;;;;6.05;1.60;;;23.60;99.90;;;;;;4986015;28;20437;-75
2023/07/22 10:42:54;;;;;;;3.60;2.10;;;23.40;99.90;;;;;;4984671;28;20042;-76
2023/07/22 10:45:30;;;;;;;2.45;1.67;;;23.50;99.90;;;;;;4985620;28;20042;-74
2023/07/22 10:48:05;;;;;;;3.05;1.70;;;23.70;99.90;;;;;;4983071;28;20045;-74
2023/07/22 10:50:50;;;;;;;2.58;1.65;;;24.00;99.90;;;;;;4984072;28;20035;-74
2023/07/22 10:53:24;;;;;;;4.18;2.15;;;24.20;99.90;;;;;;4983612;28;20030;-75
2023/07/22 10:56:08;;;;;;;;;;;24.50;99.90;;;;;;4985996;28;20100;-74
2023/07/22 10:58:56;;;;;;;6.82;2.05;;;24.90;99.90;;;;;;4983297;28;19929;-75
2023/07/22 11:01:34;;;;;;;4.53;1.70;;;25.20;99.90;;;;;;4984193;28;20030;-75
2023/07/22 11:04:17;;;;;;;3.28;2.13;;;25.40;99.90;;;;;;4983882;28;20444;-74
2023/07/22 11:06:48;;;;;;;7.05;1.70;;;25.50;99.90;;;;;;4984950;28;20085;-75
2023/07/22 11:09:29;;;;;;;4.25;1.77;;;25.40;99.90;;;;;;4984240;28;20104;-75
2023/07/22 11:11:58;;;;;;;3.42;1.92;;;25.80;99.90;;;;;;4985472;28;20041;-74
2023/07/22 11:14:25;;;;;;;1.83;1.45;;;26.00;99.90;;;;;;4984760;28;20034;-74
2023/07/22 11:16:51;;;;;;;3.65;1.70;;;26.20;99.90;;;;;;4986125;28;20052;-74
2023/07/22 11:19:19;;;;;;;3.15;1.90;;;26.60;99.90;;;;;;4985539;28;20373;-75
2023/07/22 11:21:46;;;;;;;3.25;1.50;;;26.60;98.20;;;;;;4984568;28;20065;-75
2023/07/22 11:24:12;;;;;;;3.85;1.63;;;26.50;98.50;;;;;;4985544;28;20409;-75
2023/07/22 11:26:39;;;;;;;2.88;1.65;;;26.40;99.90;;;;;;4984727;28;20134;-75
2023/07/22 11:29:06;;;;;;;2.95;1.70;;;26.40;99.10;;;;;;4985195;28;20165;-75
2023/07/22 11:31:42;;;;;;;2.78;1.70;;;26.30;98.20;;;;;;4986165;28;20066;-75
2023/07/22 11:34:09;;;;;;;2.08;1.50;;;26.30;98.90;;;;;;4985758;28;20543;-76
2023/07/22 11:36:35;;;;;;;4.88;1.50;;;26.30;99.40;;;;;;4985809;28;20581;-75
2023/07/22 11:39:06;;;;;;;4.93;1.70;;;26.60;99.20;;;;;;4986535;28;21213;-75
2023/07/22 11:41:32;;;;;;;3.53;1.70;;;26.70;97.30;;;;;;4987157;28;20050;-74
2023/07/22 11:44:02;;;;;;;4.15;1.50;;;26.40;98.40;;;;;;4987745;28;20041;-75
2023/07/22 11:46:28;;;;;;;2.92;1.73;;;26.20;97.50;;;;;;4984098;28;20053;-75
2023/07/22 11:48:55;;;;;;;4.22;1.95;;;26.20;98.10;;;;;;4984709;28;20030;-75
2023/07/22 11:51:22;;;;;;;2.35;1.65;;;26.50;98.10;;;;;;4986929;28;20041;-82
2023/07/22 11:53:49;;;;;;;2.38;1.73;;;26.80;97.00;;;;;;4991051;28;20034;-84
2023/07/22 11:56:27;;;;;;;3.92;1.50;;;27.00;96.10;;;;;;4988721;28;20386;-84
2023/07/22 11:58:54;;;;;;;3.50;1.67;;;27.00;96.50;;;;;;4990131;28;20079;-83
2023/07/22 12:01:20;;;;;;;2.05;1.45;;;27.20;94.80;;;;;;4991058;28;20056;-81
2023/07/22 12:03:46;;;;;;;3.75;1.58;;;27.30;95.90;;;;;;4987042;28;20117;-82
2023/07/22 12:06:13;;;;;;;2.20;1.52;;;27.50;95.50;;;;;;4987990;28;20160;-82
2023/07/22 12:08:46;;;;;;;2.33;1.50;;;27.70;94.40;;;;;;4990373;28;20053;-82
2023/07/22 12:11:23;;;;;;;4.15;1.88;;;27.70;93.20;;;;;;4988630;28;20030;-83
2023/07/22 12:14:09;;;;;;;2.53;1.48;;;27.80;93.60;;;;;;4990641;28;20117;-83
2023/07/22 12:16:39;;;;;;;4.38;1.70;;;27.90;94.50;;;;;;4990414;28;21067;-83
2023/07/22 12:19:05;;;;;;;2.95;1.60;;;27.70;93.70;;;;;;4988740;28;20038;-83
2023/07/22 12:21:31;;;;;;;2.70;1.70;;;27.70;94.00;;;;;;4992603;28;20149;-83
2023/07/22 12:23:57;;;;;;;3.25;1.85;;;27.80;93.60;;;;;;4990343;28;20045;-83
2023/07/22 12:26:23;;;;;;;2.45;1.73;;;27.80;93.00;;;;;;4989325;28;20763;-83
2023/07/22 12:28:48;;;;;;;2.83;2.00;;;28.00;93.00;;;;;;4990304;28;20051;-84
2023/07/22 12:31:14;;;;;;;2.38;1.60;;;28.00;92.80;;;;;;4990373;28;21026;-86
2023/07/22 12:33:39;;;;;;;5.07;1.70;;;28.10;91.60;;;;;;4989483;28;20756;-83
2023/07/22 12:36:05;;;;;;;3.15;1.63;;;28.20;91.10;;;;;;4988899;28;20092;-82
2023/07/22 12:38:31;;;;;;;4.07;1.70;;;28.10;90.80;;;;;;4991349;28;20030;-82
2023/07/22 12:40:57;;;;;;;5.40;1.42;;;28.20;91.40;;;;;;4988616;28;20041;-84
2023/07/22 12:43:22;;;;;;;3.58;1.80;;;28.50;92.10;;;;;;4990524;28;20026;-83